UTA595 UUWW-UUYS
Flight info
| Callsign | UTA595 |
|---|---|
| Flight time | N/A |
| Altitude | 37000 |
| Route | RILPO T753 TUNOB T791 GONIB T187 NILOL |
| Aircraft | B733/M-SDE2E3FHIRW/S |
Departure
| Time | 2026-04-29 18:29 |
|---|---|
| Airport | Vnukovo International Airport (UUWW) |
Arrival
| Time | N/A |
|---|---|
| Airport | Usinsk Airport (UUYS) |
| Time | Latitude | Longitude | Altitude | Speed | Heading |
|---|---|---|---|---|---|
| 2026-04-29 17:32 | 55.60390 | 37.28604 | 697 ft | 0 kts | 315° |
| 2026-04-29 18:09 | 55.60388 | 37.28608 | 697 ft | 2 kts | 316° |
| 2026-04-29 18:09 | 55.60377 | 37.28626 | 697 ft | 2 kts | 316° |
| 2026-04-29 18:10 | 55.60366 | 37.28645 | 697 ft | 2 kts | 316° |
| 2026-04-29 18:10 | 55.60357 | 37.28662 | 697 ft | 0 kts | 316° |
| 2026-04-29 18:10 | 55.60346 | 37.28678 | 697 ft | 3 kts | 319° |
| 2026-04-29 18:10 | 55.60329 | 37.28706 | 697 ft | 3 kts | 316° |
| 2026-04-29 18:11 | 55.60312 | 37.28735 | 697 ft | 3 kts | 314° |
| 2026-04-29 18:11 | 55.60295 | 37.28767 | 697 ft | 3 kts | 311° |
| 2026-04-29 18:11 | 55.60279 | 37.28801 | 697 ft | 3 kts | 309° |
| 2026-04-29 18:11 | 55.60265 | 37.28834 | 697 ft | 3 kts | 306° |
| 2026-04-29 18:12 | 55.60251 | 37.28869 | 697 ft | 2 kts | 298° |
| 2026-04-29 18:12 | 55.60250 | 37.28873 | 697 ft | 0 kts | 298° |
| 2026-04-29 18:24 | 55.60250 | 37.28871 | 697 ft | 0 kts | 298° |
| 2026-04-29 18:24 | 55.60255 | 37.28845 | 697 ft | 3 kts | 275° |
| 2026-04-29 18:25 | 55.60241 | 37.28796 | 697 ft | 5 kts | 237° |
| 2026-04-29 18:25 | 55.60219 | 37.28737 | 697 ft | 6 kts | 226° |
| 2026-04-29 18:25 | 55.60182 | 37.28753 | 697 ft | 7 kts | 135° |
| 2026-04-29 18:25 | 55.60141 | 37.28827 | 697 ft | 9 kts | 140° |
| 2026-04-29 18:26 | 55.60082 | 37.28877 | 697 ft | 10 kts | 167° |
| 2026-04-29 18:26 | 55.60009 | 37.28907 | 697 ft | 11 kts | 166° |
| 2026-04-29 18:26 | 55.59930 | 37.28941 | 697 ft | 12 kts | 166° |
| 2026-04-29 18:26 | 55.59857 | 37.28974 | 697 ft | 7 kts | 166° |
| 2026-04-29 18:27 | 55.59803 | 37.28981 | 697 ft | 8 kts | 197° |
| 2026-04-29 18:27 | 55.59778 | 37.28915 | 697 ft | 0 kts | 249° |
| 2026-04-29 18:28 | 55.59778 | 37.28914 | 697 ft | 0 kts | 249° |
| 2026-04-29 18:28 | 55.59750 | 37.28785 | 696 ft | 30 kts | 248° |
| 2026-04-29 18:28 | 55.59590 | 37.28082 | 697 ft | 93 kts | 250° |
| 2026-04-29 18:29 | 55.59283 | 37.26714 | 697 ft | 145 kts | 249° |
| 2026-04-29 18:29 | 55.59027 | 37.25532 | 873 ft | 156 kts | 251° |
| 2026-04-29 18:29 | 55.58514 | 37.23127 | 1522 ft | 166 kts | 251° |
| 2026-04-29 18:29 | 55.57932 | 37.21208 | 1751 ft | 192 kts | 234° |
| 2026-04-29 18:30 | 55.57025 | 37.19342 | 2083 ft | 211 kts | 232° |
| 2026-04-29 18:30 | 55.56085 | 37.17180 | 2426 ft | 231 kts | 237° |
| 2026-04-29 18:30 | 55.55156 | 37.14819 | 3229 ft | 235 kts | 243° |
| 2026-04-29 18:30 | 55.54690 | 37.12128 | 3988 ft | 232 kts | 276° |
| 2026-04-29 18:31 | 55.54769 | 37.09378 | 4934 ft | 228 kts | 277° |
| 2026-04-29 18:31 | 55.54876 | 37.06617 | 5857 ft | 225 kts | 282° |
| 2026-04-29 18:31 | 55.55352 | 37.04065 | 6543 ft | 226 kts | 307° |
| 2026-04-29 18:31 | 55.56487 | 37.02204 | 7250 ft | 226 kts | 336° |
| 2026-04-29 18:32 | 55.58031 | 37.01680 | 7844 ft | 234 kts | 3° |
| 2026-04-29 18:32 | 55.61304 | 37.02208 | 8080 ft | 237 kts | 4° |
| 2026-04-29 18:32 | 55.62949 | 37.02415 | 8095 ft | 239 kts | 2° |
| 2026-04-29 18:33 | 55.64585 | 37.02325 | 8026 ft | 237 kts | 346° |
| 2026-04-29 18:33 | 55.66171 | 37.01219 | 8045 ft | 253 kts | 339° |
| 2026-04-29 18:33 | 55.67795 | 37.00063 | 8053 ft | 256 kts | 340° |
| 2026-04-29 18:33 | 55.69471 | 36.98888 | 7981 ft | 257 kts | 340° |
| 2026-04-29 18:34 | 55.71130 | 36.97754 | 7974 ft | 255 kts | 341° |
| 2026-04-29 18:34 | 55.72242 | 36.97047 | 7943 ft | 256 kts | 341° |
| 2026-04-29 18:34 | 55.74406 | 36.95444 | 8049 ft | 254 kts | 337° |
| 2026-04-29 18:34 | 55.76060 | 36.94131 | 7999 ft | 261 kts | 338° |
| 2026-04-29 18:35 | 55.77708 | 36.92829 | 8062 ft | 258 kts | 338° |
| 2026-04-29 18:35 | 55.79346 | 36.91614 | 8028 ft | 259 kts | 338° |
| 2026-04-29 18:35 | 55.80907 | 36.90035 | 7999 ft | 260 kts | 320° |
| 2026-04-29 18:35 | 55.81954 | 36.87404 | 8035 ft | 272 kts | 294° |
| 2026-04-29 18:36 | 55.82432 | 36.84114 | 8900 ft | 276 kts | 285° |
| 2026-04-29 18:36 | 55.82807 | 36.80828 | 9837 ft | 275 kts | 286° |
| 2026-04-29 18:36 | 55.83244 | 36.77498 | 10654 ft | 278 kts | 288° |
| 2026-04-29 18:36 | 55.83700 | 36.74161 | 11407 ft | 283 kts | 286° |
| 2026-04-29 18:37 | 55.84130 | 36.70784 | 12281 ft | 283 kts | 287° |
| 2026-04-29 18:37 | 55.84549 | 36.67422 | 13151 ft | 282 kts | 285° |
| 2026-04-29 18:37 | 55.84942 | 36.64001 | 13838 ft | 288 kts | 284° |
| 2026-04-29 18:37 | 55.85338 | 36.60457 | 14412 ft | 298 kts | 283° |
| 2026-04-29 18:38 | 55.85756 | 36.56833 | 15146 ft | 301 kts | 284° |
| 2026-04-29 18:38 | 55.86198 | 36.53210 | 15907 ft | 303 kts | 286° |
| 2026-04-29 18:38 | 55.87049 | 36.49839 | 16011 ft | 299 kts | 310° |
| 2026-04-29 18:38 | 55.88654 | 36.47510 | 16081 ft | 299 kts | 334° |
| 2026-04-29 18:39 | 55.90629 | 36.46511 | 16177 ft | 302 kts | 355° |
| 2026-04-29 18:39 | 55.92728 | 36.46766 | 16181 ft | 306 kts | 9° |
| 2026-04-29 18:39 | 55.94830 | 36.47442 | 16188 ft | 304 kts | 8° |
| 2026-04-29 18:39 | 55.96917 | 36.48068 | 16159 ft | 303 kts | 7° |
| 2026-04-29 18:40 | 55.98973 | 36.48628 | 16235 ft | 306 kts | 7° |
| 2026-04-29 18:40 | 56.01093 | 36.49227 | 16173 ft | 308 kts | 7° |
| 2026-04-29 18:40 | 56.03201 | 36.49830 | 16016 ft | 302 kts | 7° |
| 2026-04-29 18:40 | 56.05251 | 36.50400 | 16028 ft | 297 kts | 6° |
| 2026-04-29 18:41 | 56.11320 | 36.53327 | 16134 ft | 322 kts | 24° |
| 2026-04-29 18:41 | 56.13375 | 36.55048 | 16132 ft | 328 kts | 22° |
| 2026-04-29 18:42 | 56.15443 | 36.56793 | 16148 ft | 326 kts | 23° |
| 2026-04-29 18:42 | 56.17494 | 36.58567 | 16201 ft | 329 kts | 24° |
| 2026-04-29 18:42 | 56.19556 | 36.60387 | 16155 ft | 332 kts | 28° |
| 2026-04-29 18:42 | 56.21253 | 36.63178 | 16158 ft | 335 kts | 53° |
| 2026-04-29 18:43 | 56.22231 | 36.66946 | 16165 ft | 342 kts | 75° |
| 2026-04-29 18:43 | 56.22511 | 36.71207 | 16206 ft | 344 kts | 84° |
| 2026-04-29 18:43 | 56.22695 | 36.75525 | 16223 ft | 345 kts | 83° |
| 2026-04-29 18:43 | 56.22903 | 36.79812 | 16184 ft | 346 kts | 83° |
| 2026-04-29 18:44 | 56.23105 | 36.84111 | 16094 ft | 343 kts | 83° |
| 2026-04-29 18:44 | 56.23301 | 36.88332 | 16121 ft | 340 kts | 83° |
| 2026-04-29 18:44 | 56.23504 | 36.92571 | 16195 ft | 343 kts | 83° |
| 2026-04-29 18:44 | 56.23708 | 36.96860 | 16192 ft | 345 kts | 83° |
| 2026-04-29 18:45 | 56.23869 | 37.01133 | 16190 ft | 345 kts | 85° |
| 2026-04-29 18:45 | 56.24058 | 37.05419 | 16140 ft | 343 kts | 82° |
| 2026-04-29 18:45 | 56.24309 | 37.09679 | 16209 ft | 341 kts | 82° |
| 2026-04-29 18:45 | 56.24553 | 37.13945 | 16285 ft | 344 kts | 83° |
| 2026-04-29 18:46 | 56.24757 | 37.18255 | 16257 ft | 347 kts | 83° |
| 2026-04-29 18:46 | 56.24942 | 37.22565 | 16171 ft | 345 kts | 83° |
| 2026-04-29 18:46 | 56.25458 | 37.26658 | 16111 ft | 336 kts | 62° |
| 2026-04-29 18:46 | 56.26851 | 37.29972 | 16205 ft | 334 kts | 37° |
| 2026-04-29 18:47 | 56.28806 | 37.32198 | 16887 ft | 335 kts | 21° |
| 2026-04-29 18:47 | 56.30965 | 37.33774 | 17019 ft | 335 kts | 18° |
| 2026-04-29 18:47 | 56.33136 | 37.35345 | 17096 ft | 337 kts | 20° |
| 2026-04-29 18:47 | 56.35286 | 37.37043 | 17154 ft | 337 kts | 21° |
| 2026-04-29 18:48 | 56.37432 | 37.38774 | 17137 ft | 337 kts | 20° |
| 2026-04-29 18:48 | 56.39511 | 37.40596 | 17112 ft | 338 kts | 34° |
| 2026-04-29 18:48 | 56.41213 | 37.43557 | 17579 ft | 345 kts | 43° |
| 2026-04-29 18:48 | 56.42909 | 37.46733 | 17950 ft | 353 kts | 43° |
| 2026-04-29 18:49 | 56.44600 | 37.49891 | 18065 ft | 350 kts | 42° |
| 2026-04-29 18:49 | 56.46298 | 37.53008 | 18151 ft | 352 kts | 43° |
| 2026-04-29 18:49 | 56.48017 | 37.56200 | 18133 ft | 352 kts | 43° |
| 2026-04-29 18:49 | 56.49725 | 37.59320 | 18125 ft | 350 kts | 42° |
| 2026-04-29 18:50 | 56.51449 | 37.62420 | 18137 ft | 349 kts | 42° |
| 2026-04-29 18:50 | 56.53165 | 37.65535 | 18199 ft | 349 kts | 43° |
| 2026-04-29 18:50 | 56.54874 | 37.68658 | 18195 ft | 352 kts | 43° |
| 2026-04-29 18:50 | 56.56602 | 37.71845 | 18152 ft | 352 kts | 43° |
| 2026-04-29 18:51 | 56.58314 | 37.75003 | 18090 ft | 350 kts | 43° |
| 2026-04-29 18:51 | 56.59984 | 37.78101 | 18101 ft | 348 kts | 44° |
| 2026-04-29 18:51 | 56.61657 | 37.81284 | 18148 ft | 350 kts | 44° |
| 2026-04-29 18:51 | 56.63343 | 37.84463 | 18155 ft | 353 kts | 42° |
| 2026-04-29 18:52 | 56.65147 | 37.87677 | 18467 ft | 366 kts | 42° |
| 2026-04-29 18:52 | 56.66977 | 37.90899 | 18987 ft | 374 kts | 41° |
| 2026-04-29 18:52 | 56.68850 | 37.94257 | 19537 ft | 382 kts | 43° |
| 2026-04-29 18:52 | 56.70707 | 37.97651 | 20162 ft | 386 kts | 42° |
| 2026-04-29 18:53 | 56.72615 | 38.01088 | 20827 ft | 390 kts | 41° |
| 2026-04-29 18:53 | 56.74592 | 38.04530 | 21274 ft | 399 kts | 41° |
| 2026-04-29 18:53 | 56.76584 | 38.08069 | 21787 ft | 406 kts | 41° |
| 2026-04-29 18:53 | 56.78616 | 38.11686 | 22534 ft | 406 kts | 41° |
| 2026-04-29 18:54 | 56.80616 | 38.15261 | 23156 ft | 409 kts | 41° |
| 2026-04-29 18:54 | 56.82640 | 38.18957 | 23679 ft | 415 kts | 41° |
| 2026-04-29 18:54 | 56.84691 | 38.22619 | 24138 ft | 420 kts | 40° |
| 2026-04-29 18:54 | 56.86819 | 38.26339 | 24823 ft | 420 kts | 40° |
| 2026-04-29 18:55 | 56.88962 | 38.29908 | 25291 ft | 425 kts | 37° |
| 2026-04-29 18:55 | 56.91244 | 38.33432 | 25729 ft | 430 kts | 36° |
| 2026-04-29 18:55 | 56.93499 | 38.36944 | 26295 ft | 433 kts | 36° |
| 2026-04-29 18:55 | 56.95785 | 38.40502 | 26929 ft | 433 kts | 36° |
| 2026-04-29 18:56 | 56.98083 | 38.44099 | 27423 ft | 437 kts | 36° |
| 2026-04-29 18:56 | 57.00412 | 38.47745 | 27832 ft | 443 kts | 37° |
| 2026-04-29 18:56 | 57.02760 | 38.51436 | 28318 ft | 447 kts | 37° |
| 2026-04-29 18:56 | 57.05131 | 38.55172 | 28830 ft | 449 kts | 37° |
| 2026-04-29 18:57 | 57.07486 | 38.58894 | 29514 ft | 447 kts | 37° |
| 2026-04-29 18:57 | 57.09815 | 38.62582 | 30209 ft | 443 kts | 37° |
| 2026-04-29 18:57 | 57.12135 | 38.66250 | 30746 ft | 442 kts | 38° |
| 2026-04-29 18:57 | 57.14468 | 38.69951 | 31251 ft | 441 kts | 38° |
| 2026-04-29 18:58 | 57.16776 | 38.73624 | 31637 ft | 439 kts | 38° |
| 2026-04-29 18:58 | 57.19090 | 38.77313 | 31954 ft | 436 kts | 38° |
| 2026-04-29 18:58 | 57.21364 | 38.80942 | 32265 ft | 435 kts | 38° |
| 2026-04-29 18:58 | 57.23651 | 38.84600 | 32489 ft | 434 kts | 38° |
| 2026-04-29 18:59 | 57.25931 | 38.88251 | 32709 ft | 434 kts | 39° |
| 2026-04-29 18:59 | 57.28183 | 38.91863 | 32934 ft | 433 kts | 39° |
| 2026-04-29 18:59 | 57.30450 | 38.95508 | 33216 ft | 432 kts | 39° |
| 2026-04-29 18:59 | 57.32726 | 38.99171 | 33494 ft | 431 kts | 39° |
| 2026-04-29 19:00 | 57.34953 | 39.02763 | 33757 ft | 431 kts | 39° |
| 2026-04-29 19:00 | 57.37217 | 39.06419 | 34068 ft | 431 kts | 39° |
| 2026-04-29 19:00 | 57.39480 | 39.10080 | 34375 ft | 430 kts | 39° |
| 2026-04-29 19:00 | 57.41714 | 39.13701 | 34695 ft | 429 kts | 39° |
| 2026-04-29 19:01 | 57.43959 | 39.17347 | 35026 ft | 427 kts | 40° |
| 2026-04-29 19:01 | 57.46178 | 39.20955 | 35349 ft | 426 kts | 39° |
| 2026-04-29 19:01 | 57.48382 | 39.24547 | 35637 ft | 425 kts | 40° |
| 2026-04-29 19:01 | 57.50587 | 39.28152 | 35852 ft | 425 kts | 40° |
| 2026-04-29 19:02 | 57.52818 | 39.31799 | 36039 ft | 427 kts | 40° |
| 2026-04-29 19:02 | 57.54289 | 39.34202 | 36162 ft | 428 kts | 40° |
| 2026-04-29 19:02 | 57.57283 | 39.39093 | 36419 ft | 430 kts | 40° |
| 2026-04-29 19:02 | 57.59515 | 39.42742 | 36643 ft | 430 kts | 40° |
| 2026-04-29 19:03 | 57.61733 | 39.46376 | 36869 ft | 429 kts | 40° |
| 2026-04-29 19:03 | 57.63994 | 39.50086 | 37039 ft | 431 kts | 40° |
| 2026-04-29 19:03 | 57.68482 | 39.57468 | 37098 ft | 433 kts | 40° |
| 2026-04-29 19:04 | 57.72987 | 39.64905 | 37091 ft | 432 kts | 40° |
| 2026-04-29 19:04 | 57.77479 | 39.72369 | 37080 ft | 432 kts | 41° |
| 2026-04-29 19:05 | 57.81964 | 39.79835 | 37080 ft | 433 kts | 41° |
| 2026-04-29 19:05 | 57.86439 | 39.87299 | 37083 ft | 433 kts | 41° |
| 2026-04-29 19:06 | 57.90926 | 39.94880 | 37073 ft | 433 kts | 41° |
| 2026-04-29 19:07 | 57.97587 | 40.06185 | 37075 ft | 434 kts | 41° |
| 2026-04-29 19:07 | 58.02069 | 40.13814 | 37076 ft | 435 kts | 41° |
| 2026-04-29 19:08 | 58.06542 | 40.21455 | 37088 ft | 432 kts | 41° |
| 2026-04-29 19:08 | 58.10961 | 40.29028 | 37071 ft | 430 kts | 41° |
| 2026-04-29 19:09 | 58.15362 | 40.36560 | 37084 ft | 430 kts | 41° |
| 2026-04-29 19:09 | 58.19819 | 40.44202 | 37093 ft | 432 kts | 41° |
| 2026-04-29 19:10 | 58.24246 | 40.51775 | 37087 ft | 431 kts | 41° |
| 2026-04-29 19:10 | 58.28679 | 40.59381 | 37082 ft | 432 kts | 40° |
| 2026-04-29 19:11 | 58.33108 | 40.67009 | 37065 ft | 434 kts | 41° |
| 2026-04-29 19:11 | 58.37579 | 40.74758 | 37063 ft | 435 kts | 41° |
| 2026-04-29 19:12 | 58.42042 | 40.82500 | 37058 ft | 435 kts | 41° |
| 2026-04-29 19:12 | 58.46464 | 40.90197 | 37049 ft | 434 kts | 41° |
| 2026-04-29 19:13 | 58.50220 | 40.96755 | 37045 ft | 434 kts | 41° |
| 2026-04-29 19:13 | 58.55519 | 41.06040 | 37043 ft | 435 kts | 41° |
| 2026-04-29 19:14 | 58.59974 | 41.13876 | 37040 ft | 434 kts | 41° |
| 2026-04-29 19:14 | 58.64408 | 41.21705 | 37042 ft | 434 kts | 41° |
| 2026-04-29 19:15 | 58.68802 | 41.29492 | 37050 ft | 433 kts | 41° |
| 2026-04-29 19:15 | 58.73207 | 41.37324 | 37061 ft | 432 kts | 41° |
| 2026-04-29 19:16 | 58.77669 | 41.45122 | 37057 ft | 431 kts | 37° |
| 2026-04-29 19:16 | 58.82468 | 41.51945 | 37059 ft | 431 kts | 34° |
| 2026-04-29 19:17 | 58.87303 | 41.58759 | 37056 ft | 431 kts | 34° |
| 2026-04-29 19:17 | 58.92123 | 41.65637 | 37045 ft | 431 kts | 36° |
| 2026-04-29 19:18 | 58.96920 | 41.72536 | 37043 ft | 431 kts | 36° |
| 2026-04-29 19:18 | 59.01740 | 41.79476 | 37043 ft | 431 kts | 36° |
| 2026-04-29 19:19 | 59.06523 | 41.86381 | 37039 ft | 431 kts | 36° |
| 2026-04-29 19:19 | 59.11342 | 41.93355 | 37000 ft | 431 kts | 35° |
| 2026-04-29 19:20 | 59.16154 | 42.00319 | 37020 ft | 432 kts | 36° |
| 2026-04-29 19:20 | 59.20978 | 42.07350 | 37030 ft | 434 kts | 36° |
| 2026-04-29 19:21 | 59.25788 | 42.14391 | 37034 ft | 432 kts | 36° |
| 2026-04-29 19:21 | 59.30579 | 42.21434 | 37030 ft | 431 kts | 36° |
| 2026-04-29 19:22 | 59.35323 | 42.28431 | 37027 ft | 431 kts | 36° |
| 2026-04-29 19:22 | 59.39904 | 42.36006 | 37035 ft | 432 kts | 46° |
| 2026-04-29 19:23 | 59.43870 | 42.44839 | 37025 ft | 434 kts | 47° |
| 2026-04-29 19:23 | 59.47881 | 42.53663 | 37024 ft | 433 kts | 46° |
| 2026-04-29 19:24 | 59.51876 | 42.62394 | 37020 ft | 433 kts | 46° |
| 2026-04-29 19:24 | 59.55908 | 42.71251 | 37011 ft | 433 kts | 47° |
| 2026-04-29 19:25 | 59.59871 | 42.79986 | 37016 ft | 433 kts | 47° |
| 2026-04-29 19:25 | 59.63896 | 42.88882 | 37015 ft | 433 kts | 47° |
| 2026-04-29 19:26 | 59.67894 | 42.97752 | 37005 ft | 433 kts | 47° |
| 2026-04-29 19:26 | 59.71889 | 43.06647 | 37002 ft | 433 kts | 47° |
| 2026-04-29 19:27 | 59.75879 | 43.15575 | 36998 ft | 434 kts | 47° |
| 2026-04-29 19:27 | 59.79848 | 43.24493 | 37003 ft | 433 kts | 47° |
| 2026-04-29 19:28 | 59.83834 | 43.33443 | 37009 ft | 431 kts | 47° |
| 2026-04-29 19:28 | 59.87769 | 43.42308 | 37012 ft | 430 kts | 47° |
| 2026-04-29 19:29 | 59.91729 | 43.51263 | 37009 ft | 431 kts | 47° |
| 2026-04-29 19:29 | 59.95684 | 43.60247 | 37005 ft | 431 kts | 47° |
| 2026-04-29 19:30 | 59.99626 | 43.69246 | 36987 ft | 432 kts | 47° |
| 2026-04-29 19:30 | 60.03575 | 43.78286 | 36999 ft | 431 kts | 47° |
| 2026-04-29 19:31 | 60.07431 | 43.87127 | 36978 ft | 435 kts | 47° |
| 2026-04-29 19:31 | 60.11407 | 43.96262 | 36936 ft | 436 kts | 47° |
| 2026-04-29 19:32 | 60.15377 | 44.05386 | 36952 ft | 435 kts | 47° |
| 2026-04-29 19:32 | 60.18656 | 44.12980 | 36950 ft | 436 kts | 48° |
| 2026-04-29 19:33 | 60.22646 | 44.22268 | 36946 ft | 437 kts | 48° |
| 2026-04-29 19:33 | 60.26206 | 44.30584 | 36945 ft | 437 kts | 48° |
| 2026-04-29 19:34 | 60.30213 | 44.39982 | 36944 ft | 438 kts | 48° |
| 2026-04-29 19:34 | 60.34160 | 44.49276 | 36945 ft | 438 kts | 48° |
| 2026-04-29 19:35 | 60.38096 | 44.58584 | 36939 ft | 438 kts | 48° |
| 2026-04-29 19:35 | 60.42058 | 44.67992 | 36928 ft | 439 kts | 49° |
| 2026-04-29 19:36 | 60.45969 | 44.77339 | 36938 ft | 438 kts | 49° |
| 2026-04-29 19:36 | 60.49625 | 44.86093 | 36938 ft | 439 kts | 49° |
| 2026-04-29 19:37 | 60.53281 | 44.94879 | 36935 ft | 438 kts | 49° |
| 2026-04-29 19:37 | 60.57071 | 45.04020 | 36931 ft | 438 kts | 49° |
| 2026-04-29 19:38 | 60.60987 | 45.13502 | 36927 ft | 439 kts | 49° |
| 2026-04-29 19:38 | 60.64864 | 45.22998 | 36930 ft | 438 kts | 49° |
| 2026-04-29 19:39 | 60.68724 | 45.32478 | 36933 ft | 437 kts | 49° |
| 2026-04-29 19:39 | 60.72603 | 45.41991 | 36934 ft | 436 kts | 49° |
| 2026-04-29 19:40 | 60.76488 | 45.51517 | 36932 ft | 436 kts | 49° |
| 2026-04-29 19:40 | 60.80362 | 45.61018 | 36931 ft | 436 kts | 49° |
| 2026-04-29 19:41 | 60.84217 | 45.70522 | 36913 ft | 436 kts | 49° |
| 2026-04-29 19:41 | 60.87827 | 45.79461 | 36923 ft | 436 kts | 49° |
| 2026-04-29 19:42 | 60.91645 | 45.88941 | 36916 ft | 438 kts | 49° |
| 2026-04-29 19:42 | 60.95411 | 45.98325 | 36899 ft | 439 kts | 49° |
| 2026-04-29 19:43 | 60.99293 | 46.08039 | 36893 ft | 439 kts | 50° |
| 2026-04-29 19:43 | 61.03151 | 46.17735 | 36886 ft | 439 kts | 49° |
| 2026-04-29 19:44 | 61.06976 | 46.27556 | 36894 ft | 438 kts | 50° |
| 2026-04-29 19:44 | 61.10761 | 46.37345 | 36892 ft | 437 kts | 50° |
| 2026-04-29 19:45 | 61.14546 | 46.47084 | 36910 ft | 436 kts | 50° |
| 2026-04-29 19:45 | 61.17929 | 46.55864 | 36915 ft | 438 kts | 50° |
| 2026-04-29 19:46 | 61.21547 | 46.65303 | 36908 ft | 437 kts | 51° |
| 2026-04-29 19:46 | 61.25309 | 46.75216 | 36902 ft | 437 kts | 51° |
| 2026-04-29 19:47 | 61.28441 | 46.83520 | 36899 ft | 438 kts | 51° |
| 2026-04-29 19:47 | 61.32106 | 46.93236 | 36888 ft | 438 kts | 51° |
| 2026-04-29 19:48 | 61.35862 | 47.03233 | 36882 ft | 438 kts | 51° |
| 2026-04-29 19:48 | 61.39610 | 47.13250 | 36874 ft | 439 kts | 51° |
| 2026-04-29 19:49 | 61.43332 | 47.23250 | 36871 ft | 439 kts | 51° |
| 2026-04-29 19:49 | 61.47052 | 47.33328 | 36866 ft | 440 kts | 51° |
| 2026-04-29 19:50 | 61.50760 | 47.43384 | 36858 ft | 440 kts | 51° |
| 2026-04-29 19:50 | 61.54869 | 47.52682 | 36859 ft | 437 kts | 34° |
| 2026-04-29 19:51 | 61.59863 | 47.59966 | 36848 ft | 438 kts | 33° |
| 2026-04-29 19:51 | 61.64831 | 47.67411 | 36827 ft | 438 kts | 35° |
| 2026-04-29 19:52 | 61.69713 | 47.74886 | 36834 ft | 438 kts | 35° |
| 2026-04-29 19:52 | 61.74554 | 47.82315 | 36829 ft | 438 kts | 35° |
| 2026-04-29 19:53 | 61.78714 | 47.88718 | 36820 ft | 438 kts | 35° |
| 2026-04-29 19:53 | 61.83554 | 47.96195 | 36816 ft | 438 kts | 35° |
| 2026-04-29 19:54 | 61.90815 | 48.07470 | 36808 ft | 438 kts | 36° |
| 2026-04-29 19:54 | 61.95707 | 48.15103 | 36805 ft | 438 kts | 35° |
| 2026-04-29 19:55 | 62.00588 | 48.22751 | 36824 ft | 438 kts | 35° |
| 2026-04-29 19:55 | 62.05476 | 48.30441 | 36827 ft | 436 kts | 35° |
| 2026-04-29 19:56 | 62.10330 | 48.38109 | 36813 ft | 435 kts | 35° |
| 2026-04-29 19:56 | 62.15157 | 48.45729 | 36818 ft | 435 kts | 35° |
| 2026-04-29 19:57 | 62.19198 | 48.52152 | 36819 ft | 436 kts | 36° |
| 2026-04-29 19:57 | 62.24798 | 48.61103 | 36808 ft | 436 kts | 36° |
| 2026-04-29 19:58 | 62.28098 | 48.66399 | 36766 ft | 439 kts | 37° |
| 2026-04-29 19:58 | 62.32827 | 48.74611 | 36798 ft | 441 kts | 41° |
| 2026-04-29 19:59 | 62.36820 | 48.82267 | 36792 ft | 441 kts | 41° |
| 2026-04-29 19:59 | 62.41427 | 48.91028 | 36796 ft | 441 kts | 41° |
| 2026-04-29 20:00 | 62.45427 | 48.98632 | 36789 ft | 441 kts | 41° |
| 2026-04-29 20:00 | 62.49889 | 49.07148 | 36781 ft | 440 kts | 41° |
| 2026-04-29 20:01 | 62.54411 | 49.15813 | 36770 ft | 441 kts | 41° |
| 2026-04-29 20:01 | 62.58986 | 49.24617 | 36770 ft | 441 kts | 41° |
| 2026-04-29 20:02 | 62.63567 | 49.33470 | 36764 ft | 441 kts | 41° |
| 2026-04-29 20:02 | 62.66602 | 49.39359 | 36760 ft | 441 kts | 41° |
| 2026-04-29 20:03 | 62.72658 | 49.51156 | 36762 ft | 441 kts | 41° |
| 2026-04-29 20:03 | 62.77233 | 49.60113 | 36747 ft | 442 kts | 41° |
| 2026-04-29 20:04 | 62.81771 | 49.69044 | 36730 ft | 441 kts | 42° |
| 2026-04-29 20:04 | 62.86310 | 49.78030 | 36735 ft | 441 kts | 42° |
| 2026-04-29 20:05 | 62.90837 | 49.87013 | 36726 ft | 442 kts | 41° |
| 2026-04-29 20:05 | 62.94091 | 49.93492 | 36727 ft | 442 kts | 41° |
| 2026-04-29 20:06 | 62.98042 | 50.01385 | 36728 ft | 442 kts | 41° |
| 2026-04-29 20:06 | 63.02531 | 50.10389 | 36725 ft | 443 kts | 42° |
| 2026-04-29 20:07 | 63.07072 | 50.19538 | 36727 ft | 443 kts | 42° |
| 2026-04-29 20:07 | 63.11601 | 50.28690 | 36722 ft | 443 kts | 41° |
| 2026-04-29 20:08 | 63.15342 | 50.36250 | 36747 ft | 440 kts | 42° |
| 2026-04-29 20:08 | 63.20574 | 50.46916 | 36731 ft | 440 kts | 42° |
| 2026-04-29 20:09 | 63.24321 | 50.54596 | 36728 ft | 440 kts | 42° |
| 2026-04-29 20:09 | 63.27707 | 50.61560 | 36697 ft | 443 kts | 42° |
| 2026-04-29 20:10 | 63.32172 | 50.70791 | 36704 ft | 444 kts | 43° |
| 2026-04-29 20:10 | 63.36411 | 50.79598 | 36706 ft | 443 kts | 43° |
| 2026-04-29 20:11 | 63.40896 | 50.88942 | 36707 ft | 443 kts | 43° |
| 2026-04-29 20:11 | 63.44527 | 50.96537 | 36701 ft | 443 kts | 43° |
| 2026-04-29 20:12 | 63.49031 | 51.05994 | 36697 ft | 443 kts | 43° |
| 2026-04-29 20:12 | 63.53473 | 51.15364 | 36704 ft | 443 kts | 43° |
| 2026-04-29 20:13 | 63.57203 | 51.23264 | 36708 ft | 442 kts | 43° |
| 2026-04-29 20:13 | 63.62367 | 51.34251 | 36707 ft | 441 kts | 43° |
| 2026-04-29 20:14 | 63.66790 | 51.43798 | 36693 ft | 439 kts | 44° |
| 2026-04-29 20:14 | 63.71186 | 51.53400 | 36702 ft | 442 kts | 43° |
| 2026-04-29 20:15 | 63.75596 | 51.62978 | 36701 ft | 441 kts | 43° |
| 2026-04-29 20:15 | 63.80005 | 51.72603 | 36692 ft | 441 kts | 44° |
| 2026-04-29 20:16 | 63.84383 | 51.82198 | 36695 ft | 441 kts | 44° |
| 2026-04-29 20:16 | 63.88781 | 51.91870 | 36703 ft | 441 kts | 44° |
| 2026-04-29 20:17 | 63.91717 | 51.98351 | 36666 ft | 442 kts | 44° |
| 2026-04-29 20:17 | 63.95932 | 52.07692 | 36684 ft | 443 kts | 44° |
| 2026-04-29 20:18 | 64.00262 | 52.17327 | 36701 ft | 442 kts | 44° |
| 2026-04-29 20:18 | 64.04625 | 52.27084 | 36690 ft | 440 kts | 44° |
| 2026-04-29 20:19 | 64.08967 | 52.36836 | 36664 ft | 439 kts | 44° |
| 2026-04-29 20:19 | 64.13322 | 52.46627 | 36665 ft | 440 kts | 44° |
| 2026-04-29 20:20 | 64.17622 | 52.56387 | 36680 ft | 441 kts | 44° |
| 2026-04-29 20:20 | 64.21846 | 52.66059 | 36681 ft | 441 kts | 45° |
| 2026-04-29 20:21 | 64.24532 | 52.72219 | 36621 ft | 441 kts | 45° |
| 2026-04-29 20:21 | 64.28786 | 52.81996 | 36691 ft | 445 kts | 45° |
| 2026-04-29 20:22 | 64.32973 | 52.91647 | 36704 ft | 445 kts | 45° |
| 2026-04-29 20:22 | 64.37233 | 53.01512 | 36695 ft | 444 kts | 45° |
| 2026-04-29 20:23 | 64.40993 | 53.10257 | 36701 ft | 445 kts | 45° |
| 2026-04-29 20:23 | 64.45454 | 53.20680 | 36702 ft | 444 kts | 45° |
| 2026-04-29 20:24 | 64.49809 | 53.30906 | 36710 ft | 444 kts | 45° |
| 2026-04-29 20:24 | 64.54144 | 53.41135 | 36712 ft | 445 kts | 45° |
| 2026-04-29 20:25 | 64.58402 | 53.51226 | 36713 ft | 445 kts | 45° |
| 2026-04-29 20:25 | 64.62733 | 53.61541 | 36704 ft | 445 kts | 45° |
| 2026-04-29 20:26 | 64.67042 | 53.71869 | 36702 ft | 446 kts | 46° |
| 2026-04-29 20:26 | 64.71371 | 53.82297 | 36702 ft | 446 kts | 46° |
| 2026-04-29 20:27 | 64.73781 | 53.88115 | 36709 ft | 446 kts | 46° |